Аэропорт: Кольцово. Екатеринбург

ICAO: USSS

METAR:
2018/09/23 11:00
USSS 231100Z 26003MPS CAVOK 18/05 Q1018 R26L/010060 R26R/090060 NOSIG RMK QFE743/0990
METAR:
2018/09/23 09:24
TAF USSS 230802Z 2309/2409 28003MPS CAVOK 
      BECMG 2317/2319 3100 BR SCT011 
     FM240400 25003G08MPS 9999 SCT020CB